Aviation Digital Data Service (ADDS)

Output produced by METARs form (1941 UTC 18 June 2019)
found at http://www.aviationweather.gov/metar/data/
 
TAF EEEI 181130Z 1812/1912 27014KT CAVOK 
     BECMG 1821/1823 20005KT
       
EEKA 181450Z 27009KT 200V320 CAVOK 21/10 Q1018
TAF EEKA 181200Z 1813/1819 25012KT CAVOK
       
EEKE 181850Z AUTO 24005KT 210V300 9999NDV NCD 18/12 Q1018
TAF EEKE 181400Z 1815/1821 23010KT CAVOK
       
EETN 181920Z 25009KT CAVOK 17/12 Q1016 NOSIG
TAF EETN 181700Z 1818/1918 26017KT CAVOK 
     BECMG 1821/1823 21007KT 
     PROB30 
     TEMPO 1900/1904 4000 BR
       
EETU 181850Z AUTO 25008KT 9999 NCD 19/13 Q1017